Terminal Aerodrome Forecast
Issued by NWS Mt. Holly, NJ

Home | Current Version | Previous Version | Text Only | Print | Product List | Glossary On
Versions: 1 2 3 4 5 6 7 8 9 10 11 12 13 14 15 16 17 18 19 20 21 22
000
FTUS41 KPHI 300904 AAA
TAFABE
TAF AMD
KABE 300904Z 3009/3106 18006KT P6SM FEW015 SCT040
      TEMPO 3010/3013 5SM BR BKN015
     FM301500 21008KT P6SM SCT035
     FM301700 20012G19KT P6SM -SHRA BKN045
     FM310000 20009KT P6SM -SHRA BKN035 OVC060=

USA.gov is the U.S. government's official web portal to all federal, state and local government web resources and services.